Time;durP1;ratioP1;P1;durP2;ratioP2;P2;SDS_P1;SDS_P2;PMS_P1;PMS_P2;Temp;Humidity;BMP_temperature;BMP_pressure;BME280_temperature;BME280_humidity;BME280_pressure;Samples;Min_cycle;Max_cycle;Signal;HPM_P1;HPM_P2
2022/03/20 00:00:54;;;;;;;18.52;9.45;;;;;;;;;;4825986;29;20500;-62
2022/03/20 00:03:21;;;;;;;17.38;9.20;;;;;;;;;;4827366;29;20061;-62
2022/03/20 00:05:47;;;;;;;16.95;8.88;;;;;;;;;;4841431;29;20096;-61
2022/03/20 00:08:15;;;;;;;18.60;8.73;;;;;;;;;;4827231;29;20050;-63
2022/03/20 00:10:45;;;;;;;16.17;8.82;;;;;;;;;;4826402;29;20054;-62
2022/03/20 00:13:17;;;;;;;18.83;9.25;;;;;;;;;;4840999;29;20069;-61
2022/03/20 00:15:44;;;;;;;19.50;9.32;;;;;;;;;;4841016;29;20523;-61
2022/03/20 00:18:11;;;;;;;19.90;8.95;;;;;;;;;;4827035;29;20050;-62
2022/03/20 00:20:38;;;;;;;15.70;9.18;;;;;;;;;;4796817;29;20061;-61
2022/03/20 00:23:07;;;;;;;17.20;8.90;;;;;;;;;;4827096;29;20046;-61
2022/03/20 00:25:38;;;;;;;15.60;8.40;;;;;;;;;;4811241;29;20057;-61
2022/03/20 00:28:04;;;;;;;18.00;9.00;;;;;;;;;;4827278;29;20050;-61
2022/03/20 00:30:30;;;;;;;;;;;;;;;;;;4827169;29;20058;-61
2022/03/20 00:32:57;;;;;;;15.70;8.93;;;;;;;;;;4826717;29;19932;-61
2022/03/20 00:35:23;;;;;;;18.77;8.98;;;;;;;;;;4841404;29;20055;-61
2022/03/20 00:37:49;;;;;;;18.05;8.93;;;;;;;;;;4826743;29;20054;-61
2022/03/20 00:40:15;;;;;;;18.77;9.50;;;;;;;;;;4826753;29;20137;-61
2022/03/20 00:42:41;;;;;;;16.52;9.00;;;;;;;;;;4810669;29;20046;-61
2022/03/20 00:45:09;;;;;;;18.02;9.75;;;;;;;;;;4827267;29;20163;-60
2022/03/20 00:47:35;;;;;;;16.67;9.23;;;;;;;;;;4810702;29;20047;-62
2022/03/20 00:50:01;;;;;;;19.83;9.25;;;;;;;;;;4826416;29;20062;-62
2022/03/20 00:52:27;;;;;;;16.58;8.93;;;;;;;;;;4826963;29;20054;-61
2022/03/20 00:54:53;;;;;;;18.40;9.02;;;;;;;;;;4810362;29;20081;-60
2022/03/20 00:57:20;;;;;;;19.42;8.85;;;;;;;;;;4826454;29;20066;-61
2022/03/20 00:59:46;;;;;;;20.25;9.30;;;;;;;;;;4809878;29;20058;-60
2022/03/20 01:02:12;;;;;;;20.25;9.70;;;;;;;;;;4840692;29;20050;-60
2022/03/20 01:04:39;;;;;;;20.08;9.75;;;;;;;;;;4826369;29;20500;-61
2022/03/20 01:07:05;;;;;;;19.48;9.23;;;;;;;;;;4825956;29;20141;-61
2022/03/20 01:09:32;;;;;;;20.92;9.65;;;;;;;;;;4826213;29;20086;-61
2022/03/20 01:11:58;;;;;;;19.48;9.20;;;;;;;;;;4825831;29;20050;-60
2022/03/20 01:14:25;;;;;;;21.10;9.60;;;;;;;;;;4840773;29;20089;-61
2022/03/20 01:16:51;;;;;;;;;;;;;;;;;;4826476;29;20050;-62
2022/03/20 01:19:17;;;;;;;17.15;9.25;;;;;;;;;;4826090;29;19931;-61
2022/03/20 01:21:44;;;;;;;21.30;9.27;;;;;;;;;;4826118;29;20054;-60
2022/03/20 01:24:10;;;;;;;19.05;9.85;;;;;;;;;;4825936;29;20054;-60
2022/03/20 01:26:36;;;;;;;19.83;9.65;;;;;;;;;;4826775;29;20058;-61
2022/03/20 01:29:04;;;;;;;;;;;;;;;;;;4826746;29;20096;-61
2022/03/20 01:31:31;;;;;;;19.42;9.55;;;;;;;;;;4826380;29;19924;-61
2022/03/20 01:33:58;;;;;;;18.58;9.48;;;;;;;;;;4825750;29;20050;-61
2022/03/20 01:36:24;;;;;;;20.52;10.57;;;;;;;;;;4825777;29;20103;-62
2022/03/20 01:38:50;;;;;;;23.08;10.38;;;;;;;;;;4840027;29;20057;-61
2022/03/20 01:41:16;;;;;;;20.23;10.70;;;;;;;;;;4825802;29;20093;-60
2022/03/20 01:44:09;;;;;;;18.60;9.55;;;;;;;;;;4826350;29;20050;-64
2022/03/20 01:46:35;;;;;;;20.20;10.10;;;;;;;;;;4806425;29;20168;-63
2022/03/20 01:49:01;;;;;;;20.35;10.23;;;;;;;;;;4825620;29;20058;-64
2022/03/20 01:54:15;;;;;;;19.58;10.63;;;;;;;;;;4797063;29;20066;-63
2022/03/20 01:56:46;;;;;;;18.77;9.85;;;;;;;;;;4824763;29;20090;-63
2022/03/20 01:59:12;;;;;;;22.83;10.55;;;;;;;;;;4825986;29;20096;-66
2022/03/20 02:01:38;;;;;;;19.45;10.38;;;;;;;;;;4809650;29;20046;-64
2022/03/20 02:04:04;;;;;;;18.60;10.40;;;;;;;;;;4810283;29;20066;-63
2022/03/20 02:06:30;;;;;;;17.83;9.43;;;;;;;;;;4780379;29;20069;-65
2022/03/20 02:08:56;;;;;;;20.75;10.75;;;;;;;;;;4826358;29;20062;-63
2022/03/20 02:11:25;;;;;;;20.92;10.73;;;;;;;;;;4825589;29;20073;-64
2022/03/20 02:13:51;;;;;;;19.45;10.35;;;;;;;;;;4826222;29;20050;-64
2022/03/20 02:16:17;;;;;;;19.55;10.80;;;;;;;;;;4825849;29;20135;-65
2022/03/20 02:18:44;;;;;;;22.17;11.18;;;;;;;;;;4839615;29;20047;-65
2022/03/20 02:21:10;;;;;;;20.45;11.70;;;;;;;;;;4809397;29;20073;-64
2022/03/20 02:23:36;;;;;;;20.25;11.32;;;;;;;;;;4825935;29;20046;-66
2022/03/20 02:26:03;;;;;;;21.98;11.98;;;;;;;;;;4825099;29;20563;-64
2022/03/20 02:28:29;;;;;;;22.55;11.30;;;;;;;;;;4839733;29;20088;-65
2022/03/20 02:30:55;;;;;;;;;;;;;;;;;;4825579;29;20054;-65
2022/03/20 02:33:23;;;;;;;25.48;12.68;;;;;;;;;;4825214;29;19924;-66
2022/03/20 02:35:50;;;;;;;20.63;12.60;;;;;;;;;;4825312;29;20073;-68
2022/03/20 02:38:18;;;;;;;21.33;12.25;;;;;;;;;;4809369;29;20488;-64
2022/03/20 02:40:45;;;;;;;23.08;12.07;;;;;;;;;;4839218;29;20408;-65
2022/03/20 02:43:11;;;;;;;22.45;12.82;;;;;;;;;;4825162;29;20137;-66
2022/03/20 02:45:38;;;;;;;21.02;11.95;;;;;;;;;;4809002;29;20058;-62
2022/03/20 02:48:04;;;;;;;22.38;13.18;;;;;;;;;;4808561;29;20082;-63
2022/03/20 02:50:33;;;;;;;25.10;13.40;;;;;;;;;;4824827;29;20053;-64
2022/03/20 02:52:59;;;;;;;24.15;13.18;;;;;;;;;;4838620;29;20050;-64
2022/03/20 02:55:27;;;;;;;26.13;14.30;;;;;;;;;;4839555;29;20066;-66
2022/03/20 02:57:54;;;;;;;26.63;13.75;;;;;;;;;;4825825;29;20058;-65
2022/03/20 03:00:25;;;;;;;24.70;14.60;;;;;;;;;;4839813;29;20085;-64
2022/03/20 03:02:54;;;;;;;23.67;14.38;;;;;;;;;;4809090;29;20104;-65
2022/03/20 03:05:22;;;;;;;24.83;14.07;;;;;;;;;;4824566;29;20077;-63
2022/03/20 03:13:19;;;;;;;26.23;14.85;;;;;;;;;;4808933;29;20099;-65
2022/03/20 03:15:45;;;;;;;25.80;15.02;;;;;;;;;;4825412;29;20062;-63
2022/03/20 03:18:11;;;;;;;23.90;14.68;;;;;;;;;;4839061;29;20502;-65
2022/03/20 03:20:37;;;;;;;27.15;14.50;;;;;;;;;;4793573;29;20058;-66
2022/03/20 03:23:04;;;;;;;27.48;15.40;;;;;;;;;;4825026;29;20050;-64
2022/03/20 03:25:33;;;;;;;24.33;15.27;;;;;;;;;;4824758;29;20117;-64
2022/03/20 03:27:59;;;;;;;26.17;14.88;;;;;;;;;;4823663;29;20073;-64
2022/03/20 03:30:25;;;;;;;31.92;16.70;;;;;;;;;;4808329;29;20482;-65
2022/03/20 03:32:52;;;;;;;30.98;17.25;;;;;;;;;;4824940;29;20046;-64
2022/03/20 03:38:03;;;;;;;28.17;16.25;;;;;;;;;;4828107;29;20054;-66
2022/03/20 03:40:30;;;;;;;29.13;17.20;;;;;;;;;;4827733;29;20058;-64
2022/03/20 03:42:57;;;;;;;25.15;16.30;;;;;;;;;;4827806;29;20205;-65
2022/03/20 03:45:24;;;;;;;29.55;17.35;;;;;;;;;;4827647;29;20069;-66
2022/03/20 03:47:51;;;;;;;30.13;17.08;;;;;;;;;;4826713;29;20050;-66
2022/03/20 03:50:17;;;;;;;25.70;16.23;;;;;;;;;;4841846;29;20050;-65
2022/03/20 03:52:43;;;;;;;30.45;17.27;;;;;;;;;;4827651;29;20046;-67
2022/03/20 03:55:10;;;;;;;32.00;17.42;;;;;;;;;;4827294;29;20529;-65
2022/03/20 03:57:36;;;;;;;27.65;17.90;;;;;;;;;;4811687;29;20050;-66
2022/03/20 04:00:03;;;;;;;27.67;16.73;;;;;;;;;;4827682;29;20046;-67
2022/03/20 04:02:29;;;;;;;27.23;16.23;;;;;;;;;;4827880;29;20047;-65
2022/03/20 04:04:56;;;;;;;34.15;17.95;;;;;;;;;;4828130;29;20061;-66
2022/03/20 04:07:22;;;;;;;28.33;17.13;;;;;;;;;;4822330;29;20060;-64
2022/03/20 04:09:48;;;;;;;27.70;16.42;;;;;;;;;;4805992;29;20051;-65
2022/03/20 04:12:15;;;;;;;;;;;;;;;;;;4791506;30;20051;-64
2022/03/20 04:14:41;;;;;;;28.15;18.23;;;;;;;;;;4820633;29;19933;-65
2022/03/20 04:17:08;;;;;;;27.30;17.63;;;;;;;;;;4790188;30;20051;-67
2022/03/20 04:19:34;;;;;;;25.98;16.90;;;;;;;;;;4820305;29;20052;-65
2022/03/20 04:22:01;;;;;;;30.00;18.38;;;;;;;;;;4820471;29;20059;-64
2022/03/20 04:24:28;;;;;;;28.50;18.33;;;;;;;;;;4790959;30;20062;-63
2022/03/20 04:26:55;;;;;;;29.30;17.25;;;;;;;;;;4790295;30;20055;-64
2022/03/20 04:29:21;;;;;;;29.83;18.77;;;;;;;;;;4789900;30;20051;-63
2022/03/20 04:31:47;;;;;;;;;;;;;;;;;;4789743;30;20528;-64
2022/03/20 04:34:13;;;;;;;29.70;17.58;;;;;;;;;;4790892;30;19925;-64
2022/03/20 04:36:39;;;;;;;32.97;18.25;;;;;;;;;;4789839;30;20055;-64
2022/03/20 04:39:06;;;;;;;29.38;18.00;;;;;;;;;;4819999;29;20473;-64
2022/03/20 04:41:32;;;;;;;33.20;19.23;;;;;;;;;;4790533;30;20409;-62
2022/03/20 04:43:58;;;;;;;32.90;17.85;;;;;;;;;;4791130;30;20461;-66
2022/03/20 04:46:24;;;;;;;29.00;18.10;;;;;;;;;;4789531;29;20051;-63
2022/03/20 04:59:54;;;;;;;32.40;19.58;;;;;;;;;;4773085;30;20059;-65
2022/03/20 05:02:20;;;;;;;29.48;19.10;;;;;;;;;;4820038;29;20055;-65
2022/03/20 05:04:46;;;;;;;31.52;19.25;;;;;;;;;;4819297;29;20058;-64
2022/03/20 05:07:13;;;;;;;29.70;18.45;;;;;;;;;;4819549;29;20062;-64
2022/03/20 05:15:09;;;;;;;31.17;19.85;;;;;;;;;;4827135;29;20506;-67
2022/03/20 05:17:36;;;;;;;30.75;19.80;;;;;;;;;;4840758;29;20042;-68
2022/03/20 05:20:03;;;;;;;35.97;20.25;;;;;;;;;;4826513;29;20148;-66
2022/03/20 05:22:30;;;;;;;30.45;19.75;;;;;;;;;;4826635;29;20103;-66
2022/03/20 05:24:57;;;;;;;33.22;20.92;;;;;;;;;;4810044;29;20069;-65
2022/03/20 05:27:23;;;;;;;31.00;19.63;;;;;;;;;;4840297;29;20061;-65
2022/03/20 05:29:49;;;;;;;32.45;19.63;;;;;;;;;;4825497;29;20206;-65
2022/03/20 05:32:15;;;;;;;34.47;20.27;;;;;;;;;;4824816;29;20058;-64
2022/03/20 05:34:42;;;;;;;33.83;20.50;;;;;;;;;;4825129;29;20412;-66
2022/03/20 05:37:08;;;;;;;33.97;20.98;;;;;;;;;;4825475;29;20053;-65
2022/03/20 05:39:35;;;;;;;33.58;20.95;;;;;;;;;;4839035;29;20065;-64
2022/03/20 05:42:01;;;;;;;30.38;20.63;;;;;;;;;;4839056;29;20047;-65
2022/03/20 05:44:27;;;;;;;31.25;20.58;;;;;;;;;;4824751;29;20065;-65
2022/03/20 05:46:57;;;;;;;31.23;20.58;;;;;;;;;;4838993;29;20053;-65
2022/03/20 05:49:24;;;;;;;33.47;21.35;;;;;;;;;;4839088;29;20054;-64
2022/03/20 05:51:50;;;;;;;33.38;21.55;;;;;;;;;;4824181;29;20058;-65
2022/03/20 05:54:16;;;;;;;;;;;;;;;;;;4808446;29;20089;-66
2022/03/20 05:59:30;;;;;;;;;;;;;;;;;;4824656;29;20062;-67
2022/03/20 06:01:56;;;;;;;34.17;21.38;;;;;;;;;;4823661;29;19924;-65
2022/03/20 06:04:23;;;;;;;32.42;21.67;;;;;;;;;;4807191;29;20097;-64
2022/03/20 06:06:52;;;;;;;34.58;21.63;;;;;;;;;;4823599;29;20160;-65
2022/03/20 06:09:18;;;;;;;35.55;22.33;;;;;;;;;;4823984;29;20352;-64
2022/03/20 06:11:44;;;;;;;34.35;22.98;;;;;;;;;;4822838;29;20053;-66
2022/03/20 06:14:10;;;;;;;35.47;22.63;;;;;;;;;;4822558;29;20134;-64
2022/03/20 06:16:36;;;;;;;37.67;22.52;;;;;;;;;;4837493;29;20085;-65
2022/03/20 06:19:05;;;;;;;37.83;22.80;;;;;;;;;;4838035;29;20054;-66
2022/03/20 06:21:31;;;;;;;34.65;22.30;;;;;;;;;;4823374;29;20492;-67
2022/03/20 06:23:57;;;;;;;33.58;22.40;;;;;;;;;;4823982;29;20099;-67
2022/03/20 06:26:24;;;;;;;35.80;22.40;;;;;;;;;;4823541;29;20158;-67
2022/03/20 06:28:50;;;;;;;33.47;22.73;;;;;;;;;;4823343;29;20086;-68
2022/03/20 06:31:17;;;;;;;38.28;22.52;;;;;;;;;;4822827;29;20110;-65
2022/03/20 06:33:43;;;;;;;35.45;22.98;;;;;;;;;;4837730;29;20398;-66
2022/03/20 06:36:09;;;;;;;;;;;;;;;;;;4824122;29;20388;-66
2022/03/20 06:38:36;;;;;;;40.22;23.42;;;;;;;;;;4823566;29;19921;-65
2022/03/20 06:41:04;;;;;;;33.05;22.88;;;;;;;;;;4821994;29;20050;-63
2022/03/20 06:43:30;;;;;;;34.50;22.35;;;;;;;;;;4837241;29;20061;-63
2022/03/20 06:45:56;;;;;;;33.20;22.60;;;;;;;;;;4823072;29;20050;-64
2022/03/20 06:48:24;;;;;;;35.35;22.88;;;;;;;;;;4837357;29;20082;-65
2022/03/20 06:50:50;;;;;;;37.50;22.52;;;;;;;;;;4807331;29;20054;-64
2022/03/20 06:53:17;;;;;;;36.40;23.17;;;;;;;;;;4823192;29;20130;-67
2022/03/20 06:55:44;;;;;;;33.80;21.73;;;;;;;;;;4823022;29;20390;-65
2022/03/20 06:58:10;;;;;;;36.20;23.13;;;;;;;;;;4823388;29;20050;-65
2022/03/20 07:00:36;;;;;;;;;;;;;;;;;;4837503;29;20464;-61
2022/03/20 07:03:06;;;;;;;35.75;23.55;;;;;;;;;;4823213;29;19921;-68
2022/03/20 07:05:33;;;;;;;36.63;23.75;;;;;;;;;;4821731;29;20098;-64
2022/03/20 07:08:00;;;;;;;36.33;22.27;;;;;;;;;;4837985;29;20162;-65
2022/03/20 07:10:27;;;;;;;37.13;22.55;;;;;;;;;;4822297;29;20116;-64
2022/03/20 07:13:48;;;;;;;38.17;22.63;;;;;;;;;;4822611;29;20575;-64
2022/03/20 07:15:40;;;;;;;37.15;22.75;;;;;;;;;;4805878;29;20062;-65
2022/03/20 07:18:06;;;;;;;38.60;24.20;;;;;;;;;;4823367;29;20050;-65
2022/03/20 07:20:32;;;;;;;;;;;;;;;;;;4838206;29;20091;-68
2022/03/20 07:23:00;;;;;;;36.70;22.23;;;;;;;;;;4805380;29;19971;-69
2022/03/20 07:30:56;;;;;;;37.10;23.13;;;;;;;;;;4822806;29;20051;-63
2022/03/20 07:33:25;;;;;;;36.78;22.98;;;;;;;;;;4836388;29;20077;-64
2022/03/20 07:35:51;;;;;;;35.47;22.67;;;;;;;;;;4822525;29;20054;-62
2022/03/20 07:38:18;;;;;;;38.10;24.23;;;;;;;;;;4835993;29;20046;-63
2022/03/20 07:40:44;;;;;;;35.30;22.77;;;;;;;;;;4806000;29;20110;-64
2022/03/20 07:43:10;;;;;;;35.78;23.10;;;;;;;;;;4822357;29;20081;-62
2022/03/20 07:45:36;;;;;;;37.30;22.85;;;;;;;;;;4836115;29;20058;-62
2022/03/20 07:48:02;;;;;;;35.28;22.65;;;;;;;;;;4822305;29;20133;-66
2022/03/20 07:50:28;;;;;;;41.38;23.13;;;;;;;;;;4836436;29;20093;-63
2022/03/20 07:52:56;;;;;;;34.97;21.83;;;;;;;;;;4822529;29;20387;-63
2022/03/20 07:55:23;;;;;;;35.08;21.77;;;;;;;;;;4806199;29;20050;-65
2022/03/20 07:57:58;;;;;;;36.08;22.40;;;;;;;;;;4836816;29;20066;-64
2022/03/20 08:00:24;;;;;;;35.50;21.50;;;;;;;;;;4822293;29;20077;-63
2022/03/20 08:02:55;;;;;;;36.70;22.25;;;;;;;;;;4822163;29;20103;-63
2022/03/20 08:05:24;;;;;;;38.00;23.65;;;;;;;;;;4836241;29;20449;-63
2022/03/20 08:07:51;;;;;;;37.60;22.75;;;;;;;;;;4821890;29;20066;-65
2022/03/20 08:10:17;;;;;;;36.42;23.58;;;;;;;;;;4805870;29;20465;-63
2022/03/20 08:12:46;;;;;;;32.88;21.13;;;;;;;;;;4835636;29;20047;-62
2022/03/20 08:15:15;;;;;;;34.03;23.27;;;;;;;;;;4822062;29;20125;-65
2022/03/20 08:17:45;;;;;;;37.63;21.58;;;;;;;;;;4805926;29;20054;-62
2022/03/20 08:20:11;;;;;;;35.65;21.17;;;;;;;;;;4822020;29;20061;-62
2022/03/20 08:22:37;;;;;;;32.78;21.73;;;;;;;;;;4808968;29;20061;-63
2022/03/20 08:25:04;;;;;;;37.15;22.83;;;;;;;;;;4808813;29;20069;-63
2022/03/20 08:27:30;;;;;;;38.95;22.25;;;;;;;;;;4839481;29;20428;-63
2022/03/20 08:29:57;;;;;;;34.00;22.08;;;;;;;;;;4839672;29;20046;-65
2022/03/20 08:32:25;;;;;;;36.75;23.20;;;;;;;;;;4808655;29;20051;-62
2022/03/20 08:34:52;;;;;;;38.08;23.23;;;;;;;;;;4838943;29;20097;-64
2022/03/20 08:37:21;;;;;;;33.72;21.63;;;;;;;;;;4824697;29;20459;-65
2022/03/20 08:39:47;;;;;;;35.88;21.95;;;;;;;;;;4824349;29;20444;-63
2022/03/20 08:42:13;;;;;;;35.95;21.45;;;;;;;;;;4825000;29;20387;-64
2022/03/20 08:44:39;;;;;;;33.13;21.77;;;;;;;;;;4825872;29;20374;-63
2022/03/20 08:47:06;;;;;;;35.38;22.17;;;;;;;;;;4823675;29;20087;-63
2022/03/20 08:49:32;;;;;;;34.88;21.75;;;;;;;;;;4824996;29;20046;-63
2022/03/20 08:51:58;;;;;;;38.35;23.20;;;;;;;;;;4838465;29;20125;-64
2022/03/20 08:54:24;;;;;;;36.85;22.08;;;;;;;;;;4824290;29;20050;-61
2022/03/20 08:56:50;;;;;;;37.60;24.48;;;;;;;;;;4824295;29;20050;-64
2022/03/20 08:59:16;;;;;;;39.75;24.25;;;;;;;;;;4824856;29;20043;-64
2022/03/20 09:01:42;;;;;;;37.65;24.13;;;;;;;;;;4824312;29;20054;-64
2022/03/20 09:04:10;;;;;;;37.75;24.85;;;;;;;;;;4838919;29;20042;-63
2022/03/20 09:06:43;;;;;;;38.72;24.92;;;;;;;;;;4823016;29;20399;-63
2022/03/20 09:09:13;;;;;;;37.13;23.27;;;;;;;;;;4824389;29;20484;-62
2022/03/20 09:11:39;;;;;;;38.25;24.17;;;;;;;;;;4837760;29;20054;-62
2022/03/20 09:14:06;;;;;;;40.45;22.63;;;;;;;;;;4824044;29;20050;-62
2022/03/20 09:19:19;;;;;;;35.88;24.00;;;;;;;;;;4808161;29;20073;-63
2022/03/20 09:21:45;;;;;;;39.53;24.05;;;;;;;;;;4838550;29;20046;-63
2022/03/20 09:24:13;;;;;;;39.83;21.67;;;;;;;;;;4823319;29;20050;-63
2022/03/20 09:26:39;;;;;;;40.08;24.25;;;;;;;;;;4837432;29;20058;-62
2022/03/20 09:29:05;;;;;;;40.03;23.85;;;;;;;;;;4824127;29;20042;-64
2022/03/20 09:31:31;;;;;;;37.53;23.73;;;;;;;;;;4822963;29;20074;-61
2022/03/20 09:33:58;;;;;;;38.13;24.38;;;;;;;;;;4838547;29;20050;-64
2022/03/20 09:36:24;;;;;;;;;;;;;;;;;;4823774;29;20050;-64
2022/03/20 09:38:50;;;;;;;38.15;23.77;;;;;;;;;;4824047;29;19931;-62
2022/03/20 09:41:22;;;;;;;36.38;23.92;;;;;;;;;;4823855;29;20138;-61
2022/03/20 09:43:48;;;;;;;37.65;23.27;;;;;;;;;;4838139;29;20046;-62
2022/03/20 09:46:19;;;;;;;38.40;23.25;;;;;;;;;;4838217;29;20053;-64
2022/03/20 09:48:46;;;;;;;37.08;24.23;;;;;;;;;;4824065;29;20058;-62
2022/03/20 09:51:13;;;;;;;39.13;24.85;;;;;;;;;;4837592;29;20042;-62
2022/03/20 09:53:39;;;;;;;;;;;;;;;;;;4807998;29;20409;-61
2022/03/20 09:56:12;;;;;;;36.60;24.42;;;;;;;;;;4822559;29;19925;-62
2022/03/20 09:58:38;;;;;;;41.58;26.27;;;;;;;;;;4823597;29;20069;-62
2022/03/20 10:01:04;;;;;;;36.40;24.92;;;;;;;;;;4837523;29;20457;-64
2022/03/20 10:03:30;;;;;;;38.05;24.40;;;;;;;;;;4824182;29;20090;-65
2022/03/20 10:06:20;;;;;;;39.47;24.80;;;;;;;;;;4823644;29;20062;-63
2022/03/20 10:09:02;;;;;;;45.55;24.92;;;;;;;;;;4817289;29;20071;-70
2022/03/20 10:11:28;;;;;;;36.92;23.85;;;;;;;;;;4817233;29;20077;-64
2022/03/20 10:13:54;;;;;;;;;;;;;;;;;;4787630;30;20055;-65
2022/03/20 10:16:20;;;;;;;43.88;24.42;;;;;;;;;;4787479;30;20216;-64
2022/03/20 10:18:46;;;;;;;38.55;24.08;;;;;;;;;;4787799;30;20061;-62
2022/03/20 10:21:12;;;;;;;43.65;25.08;;;;;;;;;;4787876;30;20051;-64
2022/03/20 10:23:41;;;;;;;42.97;26.30;;;;;;;;;;4787117;30;20054;-66
2022/03/20 10:26:10;;;;;;;42.03;25.70;;;;;;;;;;4787448;30;20055;-63
2022/03/20 10:28:44;;;;;;;44.15;25.33;;;;;;;;;;4787135;30;20098;-67
2022/03/20 10:31:11;;;;;;;42.03;26.00;;;;;;;;;;4786641;30;20074;-65
2022/03/20 10:33:41;;;;;;;41.72;25.27;;;;;;;;;;4785618;30;20055;-63
2022/03/20 10:36:13;;;;;;;41.22;25.55;;;;;;;;;;4786717;30;20086;-66
2022/03/20 10:38:41;;;;;;;44.85;26.08;;;;;;;;;;4785717;30;20070;-64
2022/03/20 10:41:17;;;;;;;45.58;26.67;;;;;;;;;;4816205;29;20496;-67
2022/03/20 10:43:43;;;;;;;43.15;25.60;;;;;;;;;;4786253;30;20173;-63
2022/03/20 10:46:10;;;;;;;;;;;;;;;;;;4786968;29;20081;-72
2022/03/20 10:48:36;;;;;;;42.95;25.08;;;;;;;;;;4786838;30;19932;-68
2022/03/20 10:51:03;;;;;;;42.80;25.70;;;;;;;;;;4815962;29;20055;-66
2022/03/20 10:53:29;;;;;;;40.67;25.05;;;;;;;;;;4786751;30;20095;-63
2022/03/20 10:56:05;;;;;;;40.78;25.23;;;;;;;;;;4770587;30;20112;-64
2022/03/20 10:58:31;;;;;;;40.78;26.42;;;;;;;;;;4787334;30;20057;-67
2022/03/20 11:00:57;;;;;;;41.47;25.00;;;;;;;;;;4785347;30;20086;-64
2022/03/20 11:03:24;;;;;;;42.25;26.35;;;;;;;;;;4787096;30;20073;-64
2022/03/20 11:05:50;;;;;;;40.15;25.65;;;;;;;;;;4784482;30;20062;-63
2022/03/20 11:08:19;;;;;;;45.28;26.25;;;;;;;;;;4812987;29;20089;-62
2022/03/20 11:10:46;;;;;;;39.88;25.80;;;;;;;;;;4822849;29;20058;-62
2022/03/20 11:13:17;;;;;;;40.30;25.65;;;;;;;;;;4836679;29;20140;-63
2022/03/20 11:15:46;;;;;;;38.70;24.98;;;;;;;;;;4836464;29;20050;-64
2022/03/20 11:18:14;;;;;;;40.97;26.55;;;;;;;;;;4822598;29;20062;-64
2022/03/20 11:20:43;;;;;;;40.60;26.35;;;;;;;;;;4836779;29;20118;-64
2022/03/20 11:23:09;;;;;;;41.65;25.58;;;;;;;;;;4822711;29;20122;-62
2022/03/20 11:25:36;;;;;;;40.97;25.30;;;;;;;;;;4822565;29;20053;-62
2022/03/20 11:28:03;;;;;;;;;;;;;;;;;;4836975;29;20058;-62
2022/03/20 11:30:32;;;;;;;38.85;24.40;;;;;;;;;;4822533;29;20020;-62
2022/03/20 11:33:00;;;;;;;39.97;25.63;;;;;;;;;;4822484;29;20053;-63
2022/03/20 11:35:33;;;;;;;41.47;26.05;;;;;;;;;;4822081;29;20094;-66
2022/03/20 11:38:14;;;;;;;39.17;26.48;;;;;;;;;;4822572;29;20192;-64
2022/03/20 11:40:43;;;;;;;43.50;25.25;;;;;;;;;;4805994;29;20069;-64
2022/03/20 11:43:19;;;;;;;39.50;24.83;;;;;;;;;;4836303;29;20047;-63
2022/03/20 11:46:03;;;;;;;37.73;24.87;;;;;;;;;;4822344;29;20058;-63
2022/03/20 11:48:29;;;;;;;43.38;26.67;;;;;;;;;;4822699;29;20360;-62
2022/03/20 11:50:57;;;;;;;37.65;24.73;;;;;;;;;;4806124;29;20563;-64
2022/03/20 11:53:26;;;;;;;42.63;26.35;;;;;;;;;;4822726;29;20046;-66
2022/03/20 11:55:54;;;;;;;41.13;25.58;;;;;;;;;;4823115;29;20054;-66
2022/03/20 11:58:21;;;;;;;42.38;25.65;;;;;;;;;;4839857;29;20101;-67
2022/03/20 12:01:03;;;;;;;41.35;26.02;;;;;;;;;;4825680;29;20081;-66
2022/03/20 12:03:43;;;;;;;41.05;25.35;;;;;;;;;;4825984;29;20046;-66
2022/03/20 12:06:26;;;;;;;42.38;25.08;;;;;;;;;;4807003;29;20143;-66
2022/03/20 12:09:11;;;;;;;41.78;26.52;;;;;;;;;;4825338;29;20199;-64
2022/03/20 12:11:43;;;;;;;41.65;25.45;;;;;;;;;;4839757;29;20560;-66
2022/03/20 12:14:17;;;;;;;40.72;25.40;;;;;;;;;;4825445;29;20058;-64
2022/03/20 12:16:52;;;;;;;43.22;24.63;;;;;;;;;;4840208;29;20130;-67
2022/03/20 12:19:21;;;;;;;40.08;24.20;;;;;;;;;;4839377;29;20518;-67
2022/03/20 12:21:56;;;;;;;40.35;26.25;;;;;;;;;;4825175;29;20142;-66
2022/03/20 12:24:47;;;;;;;39.30;26.08;;;;;;;;;;4824958;29;20115;-65
2022/03/20 12:27:19;;;;;;;42.20;25.55;;;;;;;;;;4824795;29;20066;-63
2022/03/20 12:29:48;;;;;;;43.78;25.55;;;;;;;;;;4825070;29;20145;-62
2022/03/20 12:32:15;;;;;;;42.72;25.40;;;;;;;;;;4819269;29;20042;-63
2022/03/20 12:34:45;;;;;;;39.03;25.33;;;;;;;;;;4824876;29;20050;-64
2022/03/20 12:37:40;;;;;;;43.13;26.88;;;;;;;;;;4824937;29;20046;-68
2022/03/20 12:40:18;;;;;;;47.80;25.75;;;;;;;;;;4809396;29;20065;-64
2022/03/20 12:43:07;;;;;;;39.13;25.02;;;;;;;;;;4825742;29;20130;-65
2022/03/20 12:45:34;;;;;;;44.65;27.10;;;;;;;;;;4813777;29;20057;-64
2022/03/20 12:48:02;;;;;;;43.75;26.20;;;;;;;;;;4839208;29;20068;-67
2022/03/20 12:50:29;;;;;;;41.17;25.38;;;;;;;;;;4839445;29;20115;-63
2022/03/20 12:53:03;;;;;;;40.70;25.67;;;;;;;;;;4838689;29;20038;-65
2022/03/20 12:55:30;;;;;;;43.00;25.00;;;;;;;;;;4824599;29;20171;-67
2022/03/20 12:57:56;;;;;;;;;;;;;;;;;;4825098;29;20391;-64
2022/03/20 13:00:24;;;;;;;42.38;26.17;;;;;;;;;;4824432;29;19921;-65
2022/03/20 13:03:06;;;;;;;40.17;26.60;;;;;;;;;;4824919;29;20046;-67
2022/03/20 13:05:58;;;;;;;38.90;25.08;;;;;;;;;;4823299;29;20092;-64
2022/03/20 13:08:38;;;;;;;39.67;26.17;;;;;;;;;;4789066;29;20059;-63
2022/03/20 13:11:48;;;;;;;40.08;26.40;;;;;;;;;;4807939;29;20515;-66
2022/03/20 13:13:54;;;;;;;39.63;24.17;;;;;;;;;;4824447;29;20391;-64
2022/03/20 13:16:24;;;;;;;43.20;25.55;;;;;;;;;;4823808;29;20216;-65
2022/03/20 13:18:50;;;;;;;39.60;25.88;;;;;;;;;;4838160;29;20096;-65
2022/03/20 13:21:19;;;;;;;41.28;25.13;;;;;;;;;;4824282;29;20464;-66
2022/03/20 13:23:47;;;;;;;44.83;25.23;;;;;;;;;;4824408;29;20054;-66
2022/03/20 13:26:18;;;;;;;40.15;25.23;;;;;;;;;;4824810;29;20195;-68
2022/03/20 13:28:45;;;;;;;40.78;24.92;;;;;;;;;;4838300;29;20069;-65
2022/03/20 13:31:16;;;;;;;39.65;24.83;;;;;;;;;;4824339;29;20050;-67
2022/03/20 13:33:57;;;;;;;44.88;26.90;;;;;;;;;;4823838;29;20050;-66
2022/03/20 13:36:32;;;;;;;36.38;24.13;;;;;;;;;;4837610;29;20540;-64
2022/03/20 13:39:00;;;;;;;39.75;25.20;;;;;;;;;;4824714;29;20065;-66
2022/03/20 13:41:27;;;;;;;40.78;24.67;;;;;;;;;;4824556;29;20046;-65
2022/03/20 13:44:04;;;;;;;39.88;25.33;;;;;;;;;;4824370;29;20058;-66
2022/03/20 13:46:34;;;;;;;41.83;23.98;;;;;;;;;;4824395;29;20066;-67
2022/03/20 13:49:04;;;;;;;43.28;25.27;;;;;;;;;;4824052;29;20125;-66
2022/03/20 13:51:30;;;;;;;43.63;24.45;;;;;;;;;;4837922;29;20061;-64
2022/03/20 13:53:56;;;;;;;;;;;;;;;;;;4823566;29;20050;-63
2022/03/20 13:56:25;;;;;;;39.83;25.70;;;;;;;;;;4823724;29;19986;-63
2022/03/20 13:59:04;;;;;;;49.20;25.02;;;;;;;;;;4823836;29;20051;-68
2022/03/20 14:01:51;;;;;;;43.15;25.50;;;;;;;;;;4807113;29;20513;-64
2022/03/20 14:04:18;;;;;;;40.70;24.67;;;;;;;;;;4807460;29;20050;-66
2022/03/20 14:06:45;;;;;;;37.50;24.05;;;;;;;;;;4837966;29;20443;-66
2022/03/20 14:09:12;;;;;;;38.40;25.60;;;;;;;;;;4824482;29;20074;-66
2022/03/20 14:11:39;;;;;;;39.08;24.27;;;;;;;;;;4823345;29;20046;-67
2022/03/20 14:14:06;;;;;;;39.15;25.52;;;;;;;;;;4823480;29;20053;-64
2022/03/20 14:16:32;;;;;;;40.15;24.80;;;;;;;;;;4822364;29;20054;-65
2022/03/20 14:19:00;;;;;;;;;;;;;;;;;;4837617;29;20085;-68
2022/03/20 14:21:28;;;;;;;40.00;24.15;;;;;;;;;;4822560;29;19969;-66
2022/03/20 14:24:01;;;;;;;35.65;23.98;;;;;;;;;;4823310;29;20369;-64
2022/03/20 14:26:28;;;;;;;40.85;24.70;;;;;;;;;;4823640;29;20061;-62
2022/03/20 14:28:54;;;;;;;;;;;;;;;;;;4807687;29;20057;-67
2022/03/20 14:39:59;;;;;;;37.72;24.23;;;;;;;;;;4785087;30;20101;-67
2022/03/20 14:42:30;;;;;;;39.03;24.27;;;;;;;;;;4785669;30;20093;-69
2022/03/20 14:44:57;;;;;;;39.28;24.75;;;;;;;;;;4774047;29;20119;-66
2022/03/20 14:47:25;;;;;;;40.70;25.10;;;;;;;;;;4823213;29;20470;-68
2022/03/20 14:49:55;;;;;;;43.60;24.88;;;;;;;;;;4807713;29;20046;-67
2022/03/20 14:52:22;;;;;;;41.20;24.83;;;;;;;;;;4823197;29;20047;-65
2022/03/20 14:54:48;;;;;;;40.83;26.70;;;;;;;;;;4791972;29;20109;-64
2022/03/20 14:57:17;;;;;;;45.22;26.15;;;;;;;;;;4836391;29;20412;-65
2022/03/20 14:59:44;;;;;;;39.25;24.17;;;;;;;;;;4837474;29;20058;-62
2022/03/20 15:02:11;;;;;;;38.67;25.05;;;;;;;;;;4823546;29;20345;-66
2022/03/20 15:04:39;;;;;;;39.63;24.92;;;;;;;;;;4823033;29;20046;-64
2022/03/20 15:07:05;;;;;;;39.65;24.77;;;;;;;;;;4822929;29;20093;-66
2022/03/20 15:12:16;;;;;;;39.25;24.45;;;;;;;;;;4822982;29;20491;-68
2022/03/20 15:14:42;;;;;;;41.92;25.90;;;;;;;;;;4823839;29;20134;-68
2022/03/20 15:17:08;;;;;;;;;;;;;;;;;;4823379;29;20057;-68
2022/03/20 15:19:36;;;;;;;35.97;23.60;;;;;;;;;;4807245;29;19921;-68
2022/03/20 15:22:03;;;;;;;37.38;23.33;;;;;;;;;;4836842;29;20124;-68